createdAt,value
2017-12-05T00:00:01.131Z,2.02
2017-12-05T00:00:05.265Z,2.01
2017-12-05T00:00:09.297Z,2.01
2017-12-05T00:00:13.540Z,2.02
2017-12-05T00:00:17.775Z,2.01
2017-12-05T00:00:22.118Z,2
2017-12-05T00:00:26.354Z,2.01
2017-12-05T00:00:30.698Z,2.02
2017-12-05T00:00:34.948Z,2.01
2017-12-05T00:00:39.203Z,2.01
2017-12-05T00:00:43.553Z,2.01
2017-12-05T00:00:47.896Z,2.01
2017-12-05T00:00:52.250Z,2.01
2017-12-05T00:00:56.372Z,2
2017-12-05T00:01:00.611Z,2.01
2017-12-05T00:01:04.871Z,2.01
2017-12-05T00:01:08.996Z,2.01
2017-12-05T00:01:13.255Z,2.01
2017-12-05T00:01:17.602Z,2.01
2017-12-05T00:01:21.946Z,2.01
2017-12-05T00:01:26.311Z,2.01
2017-12-05T00:01:30.551Z,2.01
2017-12-05T00:01:34.675Z,2.02
2017-12-05T00:01:38.812Z,2.01
2017-12-05T00:01:42.856Z,2.02
2017-12-05T00:01:47.097Z,2.02
2017-12-05T00:01:51.127Z,2.02
2017-12-05T00:01:55.530Z,2.02
2017-12-05T00:01:59.871Z,2.02
2017-12-05T00:02:04.474Z,2.02
2017-12-05T00:02:08.710Z,2.03
2017-12-05T00:02:12.971Z,2.01
2017-12-05T00:02:17.229Z,2.02
2017-12-05T00:02:21.489Z,2.02
2017-12-05T00:02:25.829Z,2.02
2017-12-05T00:02:30.188Z,2.03
2017-12-05T00:02:34.429Z,2.02
2017-12-05T00:02:38.573Z,2.02
2017-12-05T00:02:42.977Z,2.02
2017-12-05T00:02:47.118Z,2.02
2017-12-05T00:02:51.461Z,2.02
2017-12-05T00:02:55.818Z,2.03
2017-12-05T00:03:00.166Z,2.02
2017-12-05T00:03:04.400Z,2.02
2017-12-05T00:03:08.633Z,2.02
2017-12-05T00:03:12.879Z,2.03
2017-12-05T00:03:17.058Z,2.02
2017-12-05T00:03:21.418Z,2.02
2017-12-05T00:03:25.767Z,2.03
2017-12-05T00:03:29.906Z,2.02
2017-12-05T00:03:34.241Z,2.03
2017-12-05T00:03:38.471Z,2.02
2017-12-05T00:03:42.715Z,2.03
2017-12-05T00:03:46.916Z,2.03
2017-12-05T00:03:51.274Z,2.03
2017-12-05T00:03:55.319Z,2.03
2017-12-05T00:03:59.574Z,2.03
2017-12-05T00:04:03.760Z,2.03
2017-12-05T00:04:08.110Z,2.03
2017-12-05T00:04:12.239Z,2.04
2017-12-05T00:04:16.575Z,2.03
2017-12-05T00:04:20.593Z,2.03
2017-12-05T00:04:24.946Z,2.03
2017-12-05T00:04:29.094Z,2.03
2017-12-05T00:04:33.445Z,2.02
2017-12-05T00:04:37.465Z,2.03
2017-12-05T00:04:41.727Z,2.04
2017-12-05T00:04:46.093Z,2.04
2017-12-05T00:04:50.493Z,2.04
2017-12-05T00:04:54.832Z,2.04
2017-12-05T00:04:59.174Z,2.04
2017-12-05T00:05:03.208Z,2.04
2017-12-05T00:05:07.370Z,2.05
2017-12-05T00:05:11.617Z,2.05
2017-12-05T00:05:15.706Z,2.05
2017-12-05T00:05:20.178Z,2.05
2017-12-05T00:05:24.424Z,2.05
2017-12-05T00:05:28.655Z,2.05
2017-12-05T00:05:33.003Z,2.05
2017-12-05T00:05:37.259Z,2.05
2017-12-05T00:05:41.504Z,2.05
2017-12-05T00:05:45.629Z,2.05
2017-12-05T00:05:49.765Z,2.05
2017-12-05T00:05:53.907Z,2.06
2017-12-05T00:05:57.937Z,2.05
2017-12-05T00:06:02.294Z,2.05
2017-12-05T00:06:06.538Z,2.05
2017-12-05T00:06:10.875Z,2.05
2017-12-05T00:06:15.107Z,2.07
2017-12-05T00:06:19.462Z,2.06
2017-12-05T00:06:23.702Z,2.06
2017-12-05T00:06:27.964Z,2.05
2017-12-05T00:06:32.220Z,2.07
2017-12-05T00:06:36.467Z,2.07
2017-12-05T00:06:40.598Z,2.06
2017-12-05T00:06:44.945Z,2.07
2017-12-05T00:06:49.196Z,2.05
2017-12-05T00:06:53.116Z,2.06
2017-12-05T00:06:57.144Z,2.06
2017-12-05T00:07:01.282Z,2.07
2017-12-05T00:07:05.519Z,2.05
2017-12-05T00:07:09.778Z,2.05
2017-12-05T00:07:14.124Z,2.05
2017-12-05T00:07:18.246Z,2.06
2017-12-05T00:07:22.576Z,2.05
2017-12-05T00:07:26.709Z,2.05
2017-12-05T00:07:30.730Z,2.06
2017-12-05T00:07:34.872Z,2.05
2017-12-05T00:07:39.114Z,2.06
2017-12-05T00:07:43.349Z,2.05
2017-12-05T00:07:47.683Z,2.06
2017-12-05T00:07:51.929Z,2.07
2017-12-05T00:07:56.046Z,2.05
2017-12-05T00:08:00.077Z,2.05
2017-12-05T00:08:04.546Z,2.05
2017-12-05T00:08:08.591Z,2.05
2017-12-05T00:08:12.610Z,2.07
2017-12-05T00:08:16.810Z,2.06
2017-12-05T00:08:21.050Z,2.06
2017-12-05T00:08:25.403Z,2.06
2017-12-05T00:08:29.537Z,2.05
2017-12-05T00:08:33.678Z,2.06
2017-12-05T00:08:37.819Z,2.05
2017-12-05T00:08:41.848Z,2.05
2017-12-05T00:08:46.190Z,2.06
2017-12-05T00:08:50.342Z,2.05
2017-12-05T00:08:54.583Z,2.05
2017-12-05T00:08:58.621Z,2.06
2017-12-05T00:09:02.743Z,2.06
2017-12-05T00:09:06.760Z,2.06
2017-12-05T00:09:10.880Z,2.06
2017-12-05T00:09:15.221Z,2.05
2017-12-05T00:09:19.345Z,2.05
2017-12-05T00:09:23.617Z,2.05
2017-12-05T00:09:27.875Z,2.05
2017-12-05T00:09:32.120Z,2.04
2017-12-05T00:09:36.493Z,2.05
2017-12-05T00:09:40.733Z,2.04
2017-12-05T00:09:44.982Z,2.04
2017-12-05T00:09:49.329Z,2.04
2017-12-05T00:09:53.477Z,2.03
2017-12-05T00:09:57.811Z,2.04
2017-12-05T00:10:02.238Z,2.04
2017-12-05T00:10:06.372Z,2.03
2017-12-05T00:10:10.719Z,2.04
2017-12-05T00:10:14.968Z,2.03
2017-12-05T00:10:19.203Z,2.03
2017-12-05T00:10:23.349Z,2.03
2017-12-05T00:10:27.694Z,2.03
2017-12-05T00:10:31.917Z,2.03
2017-12-05T00:10:36.164Z,2.03
2017-12-05T00:10:40.192Z,2.02
2017-12-05T00:10:44.530Z,2.02
2017-12-05T00:10:48.875Z,2.02
2017-12-05T00:10:53.228Z,2.02
2017-12-05T00:10:57.479Z,2.02
2017-12-05T00:11:01.727Z,2.02
2017-12-05T00:11:05.961Z,2.01
2017-12-05T00:11:10.113Z,2
2017-12-05T00:11:14.358Z,2.02
2017-12-05T00:11:18.477Z,2.01
2017-12-05T00:11:22.705Z,2.01
2017-12-05T00:11:26.844Z,2
2017-12-05T00:11:30.775Z,1.99
2017-12-05T00:11:34.919Z,2
2017-12-05T00:11:39.268Z,1.99
2017-12-05T00:11:43.613Z,2
2017-12-05T00:11:47.851Z,1.99
2017-12-05T00:11:52.192Z,1.99
2017-12-05T00:11:56.443Z,1.99
2017-12-05T00:12:00.482Z,1.99
2017-12-05T00:12:04.839Z,1.99
2017-12-05T00:12:08.865Z,1.99
2017-12-05T00:12:13.118Z,1.99
2017-12-05T00:12:17.357Z,1.98
2017-12-05T00:12:21.613Z,1.98
2017-12-05T00:12:25.841Z,1.98
2017-12-05T00:12:30.071Z,1.98
2017-12-05T00:12:34.406Z,1.97
2017-12-05T00:12:38.536Z,1.97
2017-12-05T00:12:42.891Z,1.97
2017-12-05T00:12:47.133Z,1.97
2017-12-05T00:12:51.147Z,1.98
2017-12-05T00:12:55.276Z,1.97
2017-12-05T00:12:59.422Z,1.98
2017-12-05T00:13:03.726Z,1.97
2017-12-05T00:13:07.976Z,1.97
2017-12-05T00:13:12.210Z,1.96
2017-12-05T00:13:16.594Z,1.97
2017-12-05T00:13:20.951Z,1.96
2017-12-05T00:13:25.195Z,1.96
2017-12-05T00:13:29.437Z,1.97
2017-12-05T00:13:33.688Z,1.97
2017-12-05T00:13:37.693Z,1.97
2017-12-05T00:13:41.948Z,1.96
2017-12-05T00:13:46.176Z,1.96
2017-12-05T00:13:50.517Z,1.96
2017-12-05T00:13:54.640Z,1.96
2017-12-05T00:13:58.882Z,1.97
2017-12-05T00:14:03.326Z,1.96
2017-12-05T00:14:07.564Z,1.97
2017-12-05T00:14:11.590Z,1.96
2017-12-05T00:14:15.937Z,1.96
2017-12-05T00:14:20.303Z,1.96
2017-12-05T00:14:24.553Z,1.96
2017-12-05T00:14:28.892Z,1.97
2017-12-05T00:14:33.225Z,1.96
2017-12-05T00:14:37.575Z,1.96
2017-12-05T00:14:41.933Z,1.97
2017-12-05T00:14:46.188Z,1.96
2017-12-05T00:14:50.318Z,1.96
2017-12-05T00:14:54.459Z,1.97
2017-12-05T00:14:58.703Z,1.96
2017-12-05T00:15:02.856Z,1.96
2017-12-05T00:15:06.988Z,1.97
2017-12-05T00:15:11.227Z,1.96
2017-12-05T00:15:15.566Z,1.97
2017-12-05T00:15:19.911Z,1.95
2017-12-05T00:15:24.042Z,1.97
2017-12-05T00:15:28.181Z,1.96
2017-12-05T00:15:32.411Z,1.96
2017-12-05T00:15:36.758Z,1.96
2017-12-05T00:15:41.011Z,1.96
2017-12-05T00:15:45.271Z,1.96
2017-12-05T00:15:49.410Z,1.96
2017-12-05T00:15:53.746Z,1.96
2017-12-05T00:15:58.083Z,1.96
2017-12-05T00:16:02.348Z,1.96
2017-12-05T00:16:06.476Z,1.96
2017-12-05T00:16:10.764Z,1.96
2017-12-05T00:16:15.124Z,1.96
2017-12-05T00:16:19.261Z,1.96
2017-12-05T00:16:23.508Z,1.96
2017-12-05T00:16:27.744Z,1.96
2017-12-05T00:16:32.146Z,1.96
2017-12-05T00:16:36.487Z,1.96
2017-12-05T00:16:40.731Z,1.97
2017-12-05T00:16:44.962Z,1.96
2017-12-05T00:16:49.212Z,1.96
2017-12-05T00:16:53.351Z,1.96
2017-12-05T00:16:57.487Z,1.96
2017-12-05T00:17:01.608Z,1.96
2017-12-05T00:17:05.901Z,1.96
2017-12-05T00:17:10.257Z,1.96
2017-12-05T00:17:14.279Z,1.95
2017-12-05T00:17:18.524Z,1.96
2017-12-05T00:17:22.771Z,1.96
2017-12-05T00:17:26.896Z,1.95
2017-12-05T00:17:31.128Z,1.96
2017-12-05T00:17:35.480Z,1.96
2017-12-05T00:17:39.816Z,1.96
2017-12-05T00:17:43.958Z,1.96
2017-12-05T00:17:48.319Z,1.96
2017-12-05T00:17:52.562Z,1.96
2017-12-05T00:17:56.584Z,1.96
2017-12-05T00:18:00.940Z,1.96
2017-12-05T00:18:05.257Z,1.97
2017-12-05T00:18:09.401Z,1.96
2017-12-05T00:18:13.741Z,1.97
2017-12-05T00:18:18.137Z,1.96
2017-12-05T00:18:22.509Z,1.96
2017-12-05T00:18:26.860Z,1.97
2017-12-05T00:18:31.095Z,1.97
2017-12-05T00:18:35.350Z,1.96
2017-12-05T00:18:39.590Z,1.97
2017-12-05T00:18:43.823Z,1.96
2017-12-05T00:18:47.948Z,1.96
2017-12-05T00:18:52.282Z,1.97
2017-12-05T00:18:56.531Z,1.97
2017-12-05T00:19:00.687Z,1.96
2017-12-05T00:19:04.712Z,1.97
2017-12-05T00:19:08.945Z,1.97
2017-12-05T00:19:13.289Z,1.97
2017-12-05T00:19:17.627Z,1.97
2017-12-05T00:19:21.847Z,1.97
2017-12-05T00:19:26.185Z,1.98
2017-12-05T00:19:30.417Z,1.98
2017-12-05T00:19:34.654Z,1.98
2017-12-05T00:19:38.788Z,1.97
2017-12-05T00:19:43.147Z,1.97
2017-12-05T00:19:47.398Z,1.96
2017-12-05T00:19:51.529Z,1.97
2017-12-05T00:19:55.764Z,1.97
2017-12-05T00:20:00.006Z,1.98
2017-12-05T00:20:04.078Z,1.97
2017-12-05T00:20:08.333Z,1.98
2017-12-05T00:20:12.393Z,1.98
2017-12-05T00:20:16.622Z,1.98
2017-12-05T00:20:20.647Z,1.97
2017-12-05T00:20:24.881Z,1.98
2017-12-05T00:20:29.123Z,1.98
2017-12-05T00:20:33.493Z,1.98
2017-12-05T00:20:37.840Z,1.98
2017-12-05T00:20:41.873Z,1.97
2017-12-05T00:20:46.108Z,1.98
2017-12-05T00:20:50.445Z,1.98
2017-12-05T00:20:54.682Z,1.98
2017-12-05T00:20:58.817Z,1.98
2017-12-05T00:21:03.267Z,1.98
2017-12-05T00:21:07.502Z,1.98
2017-12-05T00:21:11.526Z,1.99
2017-12-05T00:21:15.782Z,1.99
2017-12-05T00:21:20.021Z,1.98
2017-12-05T00:21:24.159Z,1.99
2017-12-05T00:21:28.214Z,1.98
2017-12-05T00:21:32.548Z,1.99
2017-12-05T00:21:36.793Z,1.98
2017-12-05T00:21:41.048Z,1.98
2017-12-05T00:21:45.398Z,1.98
2017-12-05T00:21:49.754Z,1.98
2017-12-05T00:21:54.090Z,1.98
2017-12-05T00:21:58.212Z,1.98
2017-12-05T00:22:02.445Z,1.98
2017-12-05T00:22:06.360Z,1.98
2017-12-05T00:22:10.604Z,1.98
2017-12-05T00:22:14.942Z,1.98
2017-12-05T00:22:19.176Z,1.98
2017-12-05T00:22:23.599Z,1.98
2017-12-05T00:22:27.830Z,1.98
2017-12-05T00:22:32.161Z,1.98
2017-12-05T00:22:36.509Z,1.98
2017-12-05T00:22:40.744Z,1.97
2017-12-05T00:22:44.790Z,1.98
2017-12-05T00:22:48.932Z,1.98
2017-12-05T00:22:53.321Z,1.98
2017-12-05T00:22:57.656Z,1.98
2017-12-05T00:23:02.015Z,1.98
2017-12-05T00:23:06.142Z,1.98
2017-12-05T00:23:10.480Z,1.98
2017-12-05T00:23:14.611Z,1.98
2017-12-05T00:23:18.861Z,1.98
2017-12-05T00:23:23.232Z,1.97
2017-12-05T00:23:27.518Z,1.98
2017-12-05T00:23:31.561Z,1.98
2017-12-05T00:23:35.592Z,1.99
2017-12-05T00:23:39.841Z,1.97
2017-12-05T00:23:44.188Z,1.98
2017-12-05T00:23:48.438Z,1.97
2017-12-05T00:23:52.695Z,1.98
2017-12-05T00:23:56.832Z,1.97
2017-12-05T00:24:01.072Z,1.97
2017-12-05T00:24:05.327Z,1.98
2017-12-05T00:24:09.456Z,1.97
2017-12-05T00:24:13.813Z,1.98
2017-12-05T00:24:17.939Z,1.97
2017-12-05T00:24:22.284Z,1.97
2017-12-05T00:24:26.437Z,1.98
2017-12-05T00:24:30.731Z,1.98
2017-12-05T00:24:34.961Z,1.98
2017-12-05T00:24:39.200Z,1.97
2017-12-05T00:24:43.447Z,1.98
2017-12-05T00:24:47.700Z,1.97
2017-12-05T00:24:51.951Z,1.98
2017-12-05T00:24:56.279Z,1.98
2017-12-05T00:25:00.624Z,1.98
2017-12-05T00:25:04.768Z,1.97
2017-12-05T00:25:08.912Z,1.98
2017-12-05T00:25:13.156Z,1.98
2017-12-05T00:25:17.289Z,1.98
2017-12-05T00:25:21.628Z,1.98
2017-12-05T00:25:25.971Z,1.98
2017-12-05T00:25:30.206Z,1.96
2017-12-05T00:25:34.454Z,1.98
2017-12-05T00:25:38.683Z,1.98
2017-12-05T00:25:42.922Z,1.98
2017-12-05T00:25:46.950Z,1.97
2017-12-05T00:25:51.205Z,1.98
2017-12-05T00:25:55.560Z,1.97
2017-12-05T00:25:59.811Z,1.97
2017-12-05T00:26:04.163Z,1.98
2017-12-05T00:26:08.403Z,1.98
2017-12-05T00:26:12.757Z,1.97
2017-12-05T00:26:17.100Z,1.97
2017-12-05T00:26:21.503Z,1.97
2017-12-05T00:26:25.863Z,1.98
2017-12-05T00:26:30.217Z,1.97
2017-12-05T00:26:34.454Z,1.97
2017-12-05T00:26:38.693Z,1.97
2017-12-05T00:26:42.820Z,1.98
2017-12-05T00:26:47.058Z,1.97
2017-12-05T00:26:51.397Z,1.98
2017-12-05T00:26:55.641Z,1.98
2017-12-05T00:26:59.890Z,1.98
2017-12-05T00:27:04.139Z,1.98
2017-12-05T00:27:08.468Z,1.98
2017-12-05T00:27:12.817Z,1.98
2017-12-05T00:27:16.833Z,1.98
2017-12-05T00:27:21.188Z,1.98
2017-12-05T00:27:25.525Z,1.98
2017-12-05T00:27:29.672Z,1.98
2017-12-05T00:27:34.012Z,1.98
2017-12-05T00:27:38.352Z,1.98
2017-12-05T00:27:42.598Z,1.98
2017-12-05T00:27:46.943Z,1.99
2017-12-05T00:27:51.181Z,1.99
2017-12-05T00:27:55.462Z,1.99
2017-12-05T00:27:59.708Z,1.98
2017-12-05T00:28:04.055Z,1.99
2017-12-05T00:28:08.299Z,1.99
2017-12-05T00:28:12.641Z,1.99
2017-12-05T00:28:16.684Z,1.99
2017-12-05T00:28:20.917Z,1.98
2017-12-05T00:28:25.273Z,2
2017-12-05T00:28:29.420Z,1.99
2017-12-05T00:28:33.659Z,1.99
2017-12-05T00:28:38.004Z,1.99
2017-12-05T00:28:42.025Z,2
2017-12-05T00:28:46.359Z,2
2017-12-05T00:28:50.276Z,2
2017-12-05T00:28:54.517Z,1.99
2017-12-05T00:28:58.784Z,1.99
2017-12-05T00:29:03.168Z,2
2017-12-05T00:29:07.398Z,1.99
2017-12-05T00:29:11.746Z,2
2017-12-05T00:29:16.031Z,1.99
2017-12-05T00:29:20.259Z,2
2017-12-05T00:29:24.606Z,1.99
2017-12-05T00:29:28.645Z,1.99
2017-12-05T00:29:32.984Z,1.99
2017-12-05T00:29:37.012Z,1.99
2017-12-05T00:29:41.361Z,1.99
2017-12-05T00:29:45.504Z,2
2017-12-05T00:29:49.737Z,1.99
2017-12-05T00:29:54.081Z,1.99
2017-12-05T00:29:58.337Z,2
2017-12-05T00:30:02.424Z,2
2017-12-05T00:30:06.752Z,2
2017-12-05T00:30:11.115Z,2
2017-12-05T00:30:15.338Z,2
2017-12-05T00:30:19.582Z,2
2017-12-05T00:30:23.926Z,2.01
2017-12-05T00:30:28.258Z,2
2017-12-05T00:30:32.392Z,2
2017-12-05T00:30:36.733Z,2.01
2017-12-05T00:30:41.086Z,2
2017-12-05T00:30:45.339Z,2
2017-12-05T00:30:49.470Z,2.01
2017-12-05T00:30:53.729Z,2.01
2017-12-05T00:30:57.991Z,2.01
2017-12-05T00:31:02.239Z,2.01
2017-12-05T00:31:06.488Z,2.01
2017-12-05T00:31:10.843Z,2.01
2017-12-05T00:31:15.082Z,2
2017-12-05T00:31:19.430Z,2.01
2017-12-05T00:31:23.572Z,2.02
2017-12-05T00:31:27.928Z,2.01
2017-12-05T00:31:32.261Z,2.01
2017-12-05T00:31:36.396Z,2.02
2017-12-05T00:31:40.530Z,2
2017-12-05T00:31:44.890Z,2.01
2017-12-05T00:31:49.034Z,2.02
2017-12-05T00:31:53.381Z,2.02
2017-12-05T00:31:57.616Z,2.01
2017-12-05T00:32:01.973Z,2.02
2017-12-05T00:32:06.099Z,2.02
2017-12-05T00:32:10.370Z,2.02
2017-12-05T00:32:14.506Z,2.02
2017-12-05T00:32:18.743Z,2.02
2017-12-05T00:32:22.975Z,2.01
2017-12-05T00:32:27.223Z,2.02
2017-12-05T00:32:31.477Z,2.02
2017-12-05T00:32:35.701Z,2.02
2017-12-05T00:32:39.833Z,2.02
2017-12-05T00:32:43.755Z,2.03
2017-12-05T00:32:48.005Z,2.02
2017-12-05T00:32:52.246Z,2.02
2017-12-05T00:32:56.604Z,2.03
2017-12-05T00:33:00.737Z,2.03
2017-12-05T00:33:05.329Z,2.03
2017-12-05T00:33:09.682Z,2.02
2017-12-05T00:33:14.026Z,2.03
2017-12-05T00:33:18.262Z,2.03
2017-12-05T00:33:22.619Z,2.03
2017-12-05T00:33:26.850Z,2.03
2017-12-05T00:33:31.088Z,2.03
2017-12-05T00:33:35.330Z,2.03
2017-12-05T00:33:39.461Z,2.03
2017-12-05T00:33:43.601Z,2.04
2017-12-05T00:33:47.651Z,2.04
2017-12-05T00:33:51.782Z,2.04
2017-12-05T00:33:56.138Z,2.03
2017-12-05T00:34:00.272Z,2.04
2017-12-05T00:34:04.620Z,2.04
2017-12-05T00:34:08.853Z,2.03
2017-12-05T00:34:13.204Z,2.05
2017-12-05T00:34:17.554Z,2.04
2017-12-05T00:34:21.794Z,2.04
2017-12-05T00:34:26.033Z,2.05
2017-12-05T00:34:30.167Z,2.04
2017-12-05T00:34:34.410Z,2.05
2017-12-05T00:34:38.656Z,2.05
2017-12-05T00:34:42.994Z,2.05
2017-12-05T00:34:47.346Z,2.04
2017-12-05T00:34:51.498Z,2.04
2017-12-05T00:34:55.529Z,2.04
2017-12-05T00:34:59.769Z,2.04
2017-12-05T00:35:04.010Z,2.05
2017-12-05T00:35:08.357Z,2.04
2017-12-05T00:35:12.705Z,2.05
2017-12-05T00:35:17.053Z,2.05
2017-12-05T00:35:21.398Z,2.05
2017-12-05T00:35:25.633Z,2.05
2017-12-05T00:35:29.671Z,2.05
2017-12-05T00:35:33.812Z,2.05
2017-12-05T00:35:38.052Z,2.04
2017-12-05T00:35:42.414Z,2.06
2017-12-05T00:35:46.547Z,2.05
2017-12-05T00:35:50.674Z,2.04
2017-12-05T00:35:54.909Z,2.05
2017-12-05T00:35:59.051Z,2.05
2017-12-05T00:36:03.185Z,2.05
2017-12-05T00:36:07.433Z,2.05
2017-12-05T00:36:11.776Z,2.06
2017-12-05T00:36:16.137Z,2.05
2017-12-05T00:36:20.385Z,2.06
2017-12-05T00:36:24.525Z,2.05
2017-12-05T00:36:28.929Z,2.05
2017-12-05T00:36:33.373Z,2.05
2017-12-05T00:36:37.632Z,2.05
2017-12-05T00:36:41.863Z,2.04
2017-12-05T00:36:45.988Z,2.04
2017-12-05T00:36:50.137Z,2.05
2017-12-05T00:36:54.478Z,2.05
2017-12-05T00:36:58.830Z,2.05
2017-12-05T00:37:03.162Z,2.04
2017-12-05T00:37:07.394Z,2.05
2017-12-05T00:37:11.639Z,2.05
2017-12-05T00:37:15.870Z,2.05
2017-12-05T00:37:20.007Z,2.05
2017-12-05T00:37:24.349Z,2.05
2017-12-05T00:37:28.698Z,2.04
2017-12-05T00:37:32.953Z,2.06
2017-12-05T00:37:36.991Z,2.05
2017-12-05T00:37:41.135Z,2.05
2017-12-05T00:37:45.372Z,2.04
2017-12-05T00:37:49.710Z,2.05
2017-12-05T00:37:53.626Z,2.04
2017-12-05T00:37:57.865Z,2.05
2017-12-05T00:38:02.011Z,2.05
2017-12-05T00:38:06.149Z,2.05
2017-12-05T00:38:10.491Z,2.05
2017-12-05T00:38:14.618Z,2.05
2017-12-05T00:38:18.974Z,2.05
2017-12-05T00:38:23.202Z,2.06
2017-12-05T00:38:27.451Z,2.07
2017-12-05T00:38:31.599Z,2.06
2017-12-05T00:38:35.953Z,2.05
2017-12-05T00:38:40.196Z,2.07
2017-12-05T00:38:44.327Z,2.06
2017-12-05T00:38:48.672Z,2.06
2017-12-05T00:38:52.913Z,2.06
2017-12-05T00:38:57.168Z,2.05
2017-12-05T00:39:01.266Z,2.06
2017-12-05T00:39:05.610Z,2.05
2017-12-05T00:39:09.865Z,2.06
2017-12-05T00:39:14.092Z,2.06
2017-12-05T00:39:18.320Z,2.05
2017-12-05T00:39:22.578Z,2.06
2017-12-05T00:39:26.923Z,2.06
2017-12-05T00:39:31.173Z,2.07
2017-12-05T00:39:35.522Z,2.07
2017-12-05T00:39:39.870Z,2.06
2017-12-05T00:39:44.004Z,2.06
2017-12-05T00:39:48.237Z,2.06
2017-12-05T00:39:52.477Z,2.06
2017-12-05T00:39:56.508Z,2.06
2017-12-05T00:40:00.851Z,2.07
2017-12-05T00:40:05.080Z,2.07
2017-12-05T00:40:09.328Z,2.06
2017-12-05T00:40:13.568Z,2.07
2017-12-05T00:40:17.959Z,2.06
2017-12-05T00:40:22.313Z,2.06
2017-12-05T00:40:26.678Z,2.06
2017-12-05T00:40:31.025Z,2.06
2017-12-05T00:40:35.273Z,2.08
2017-12-05T00:40:39.416Z,2.08
2017-12-05T00:40:43.666Z,2.07
2017-12-05T00:40:47.892Z,2.07
2017-12-05T00:40:52.143Z,2.08
2017-12-05T00:40:56.397Z,2.08
2017-12-05T00:41:00.756Z,2.08
2017-12-05T00:41:04.988Z,2.07
2017-12-05T00:41:09.344Z,2.06
2017-12-05T00:41:13.596Z,2.07
2017-12-05T00:41:17.838Z,2.07
2017-12-05T00:41:22.173Z,2.07
2017-12-05T00:41:26.414Z,2.08
2017-12-05T00:41:30.549Z,2.08
2017-12-05T00:41:34.890Z,2.08
2017-12-05T00:41:39.300Z,2.08
2017-12-05T00:41:43.653Z,2.07
2017-12-05T00:41:47.807Z,2.07
2017-12-05T00:41:52.048Z,2.08
2017-12-05T00:41:56.463Z,2.07
2017-12-05T00:42:00.703Z,2.08
2017-12-05T00:42:04.846Z,2.08
2017-12-05T00:42:08.878Z,2.07
2017-12-05T00:42:13.017Z,2.08
2017-12-05T00:42:17.260Z,2.06
2017-12-05T00:42:21.601Z,2.08
2017-12-05T00:42:25.747Z,2.07
2017-12-05T00:42:29.683Z,2.08
2017-12-05T00:42:34.032Z,2.08
2017-12-05T00:42:38.269Z,2.08
2017-12-05T00:42:42.607Z,2.08
2017-12-05T00:42:46.845Z,2.08
2017-12-05T00:42:51.201Z,2.07
2017-12-05T00:42:55.243Z,2.08
2017-12-05T00:42:59.587Z,2.08
2017-12-05T00:43:03.735Z,2.08
2017-12-05T00:43:07.880Z,2.08
2017-12-05T00:43:12.233Z,2.08
2017-12-05T00:43:16.567Z,2.08
2017-12-05T00:43:20.916Z,2.07
2017-12-05T00:43:25.268Z,2.08
2017-12-05T00:43:29.413Z,2.08
2017-12-05T00:43:33.645Z,2.08
2017-12-05T00:43:37.891Z,2.08
2017-12-05T00:43:42.251Z,2.08
2017-12-05T00:43:46.488Z,2.08
2017-12-05T00:43:50.733Z,2.08
2017-12-05T00:43:55.061Z,2.08
2017-12-05T00:43:59.309Z,2.08
2017-12-05T00:44:03.659Z,2.09
2017-12-05T00:44:07.899Z,2.08
2017-12-05T00:44:11.926Z,2.08
2017-12-05T00:44:16.182Z,2.08
2017-12-05T00:44:20.541Z,2.08
2017-12-05T00:44:24.887Z,2.09
2017-12-05T00:44:29.106Z,2.09
2017-12-05T00:44:33.233Z,2.08
2017-12-05T00:44:37.589Z,2.08
2017-12-05T00:44:41.713Z,2.08
2017-12-05T00:44:46.053Z,2.09
2017-12-05T00:44:50.396Z,2.08
2017-12-05T00:44:54.724Z,2.09
2017-12-05T00:44:58.644Z,2.08
2017-12-05T00:45:03.184Z,2.08
2017-12-05T00:45:07.425Z,2.08
2017-12-05T00:45:11.767Z,2.08
2017-12-05T00:45:15.895Z,2.08
2017-12-05T00:45:20.137Z,2.09
2017-12-05T00:45:24.484Z,2.08
2017-12-05T00:45:28.824Z,2.09
2017-12-05T00:45:33.162Z,2.09
2017-12-05T00:45:37.527Z,2.09
2017-12-05T00:45:41.923Z,2.09
2017-12-05T00:45:46.168Z,2.09
2017-12-05T00:45:50.095Z,2.08
2017-12-05T00:45:54.441Z,2.09
2017-12-05T00:45:58.792Z,2.08
2017-12-05T00:46:02.933Z,2.08
2017-12-05T00:46:07.169Z,2.08
2017-12-05T00:46:11.404Z,2.09
2017-12-05T00:46:15.632Z,2.08
2017-12-05T00:46:19.887Z,2.09
2017-12-05T00:46:24.019Z,2.09
2017-12-05T00:46:28.271Z,2.09
2017-12-05T00:46:32.529Z,2.08
2017-12-05T00:46:36.872Z,2.09
2017-12-05T00:46:41.232Z,2.09
2017-12-05T00:46:45.462Z,2.09
2017-12-05T00:46:49.716Z,2.09
2017-12-05T00:46:54.064Z,2.1
2017-12-05T00:46:57.989Z,2.09
2017-12-05T00:47:02.481Z,2.1
2017-12-05T00:47:06.622Z,2.1
2017-12-05T00:47:10.956Z,2.1
2017-12-05T00:47:15.202Z,2.09
2017-12-05T00:47:19.545Z,2.09
2017-12-05T00:47:23.780Z,2.1
2017-12-05T00:47:28.027Z,2.11
2017-12-05T00:47:32.277Z,2.1
2017-12-05T00:47:36.517Z,2.11
2017-12-05T00:47:40.754Z,2.1
2017-12-05T00:47:44.997Z,2.1
2017-12-05T00:47:49.231Z,2.1
2017-12-05T00:47:53.476Z,2.11
2017-12-05T00:47:57.825Z,2.1
2017-12-05T00:48:02.345Z,2.1
2017-12-05T00:48:06.593Z,2.1
2017-12-05T00:48:10.842Z,2.1
2017-12-05T00:48:15.085Z,2.1
2017-12-05T00:48:19.331Z,2.1
2017-12-05T00:48:23.676Z,2.1
2017-12-05T00:48:27.788Z,2.1
2017-12-05T00:48:31.922Z,2.09
2017-12-05T00:48:36.167Z,2.1
2017-12-05T00:48:40.186Z,2.11
2017-12-05T00:48:44.421Z,2.11
2017-12-05T00:48:48.658Z,2.1
2017-12-05T00:48:53.003Z,2.1
2017-12-05T00:48:57.139Z,2.11
2017-12-05T00:49:01.273Z,2.1
2017-12-05T00:49:05.517Z,2.1
2017-12-05T00:49:09.648Z,2.11
2017-12-05T00:49:13.884Z,2.11
2017-12-05T00:49:18.140Z,2.11
2017-12-05T00:49:22.491Z,2.1
2017-12-05T00:49:26.840Z,2.11
2017-12-05T00:49:31.110Z,2.12
2017-12-05T00:49:35.364Z,2.12
2017-12-05T00:49:39.614Z,2.12
2017-12-05T00:49:43.753Z,2.12
2017-12-05T00:49:47.880Z,2.12
2017-12-05T00:49:52.015Z,2.11
2017-12-05T00:49:56.256Z,2.12
2017-12-05T00:50:00.378Z,2.11
2017-12-05T00:50:04.518Z,2.12
2017-12-05T00:50:08.543Z,2.12
2017-12-05T00:50:12.781Z,2.12
2017-12-05T00:50:17.030Z,2.11
2017-12-05T00:50:21.272Z,2.11
2017-12-05T00:50:25.664Z,2.11
2017-12-05T00:50:29.647Z,2.12
2017-12-05T00:50:33.884Z,2.11
2017-12-05T00:50:38.115Z,2.11
2017-12-05T00:50:42.200Z,2.11
2017-12-05T00:50:46.444Z,2.11
2017-12-05T00:50:50.681Z,2.11
2017-12-05T00:50:54.825Z,2.12
2017-12-05T00:50:59.071Z,2.12
2017-12-05T00:51:03.414Z,2.11
2017-12-05T00:51:07.544Z,2.1
2017-12-05T00:51:11.548Z,2.1
2017-12-05T00:51:15.771Z,2.11
2017-12-05T00:51:19.695Z,2.11
2017-12-05T00:51:24.047Z,2.1
2017-12-05T00:51:28.288Z,2.11
2017-12-05T00:51:32.525Z,2.1
2017-12-05T00:51:36.873Z,2.1
2017-12-05T00:51:41.231Z,2.1
2017-12-05T00:51:45.528Z,2.1
2017-12-05T00:51:49.654Z,2.11
2017-12-05T00:51:54.002Z,2.11
2017-12-05T00:51:58.033Z,2.11
2017-12-05T00:52:02.463Z,2.11
2017-12-05T00:52:06.710Z,2.1
2017-12-05T00:52:10.941Z,2.1
2017-12-05T00:52:15.186Z,2.1
2017-12-05T00:52:19.538Z,2.11
2017-12-05T00:52:23.873Z,2.11
2017-12-05T00:52:27.899Z,2.11
2017-12-05T00:52:32.251Z,2.1
2017-12-05T00:52:36.512Z,2.1
2017-12-05T00:52:40.860Z,2.11
2017-12-05T00:52:45.229Z,2.1
2017-12-05T00:52:49.254Z,2.11
2017-12-05T00:52:53.577Z,2.1
2017-12-05T00:52:57.823Z,2.11
2017-12-05T00:53:02.428Z,2.1
2017-12-05T00:53:06.464Z,2.1
2017-12-05T00:53:10.817Z,2.11
2017-12-05T00:53:15.057Z,2.11
2017-12-05T00:53:19.301Z,2.1
2017-12-05T00:53:23.659Z,2.1
2017-12-05T00:53:27.810Z,2.11
2017-12-05T00:53:31.954Z,2.1
2017-12-05T00:53:36.200Z,2.11
2017-12-05T00:53:40.544Z,2.11
2017-12-05T00:53:44.684Z,2.11
2017-12-05T00:53:48.930Z,2.11
2017-12-05T00:53:53.275Z,2.1
2017-12-05T00:53:57.515Z,2.1
2017-12-05T00:54:01.948Z,2.12
2017-12-05T00:54:06.091Z,2.1
2017-12-05T00:54:10.119Z,2.11
2017-12-05T00:54:14.254Z,2.1
2017-12-05T00:54:18.393Z,2.11
2017-12-05T00:54:22.526Z,2.11
2017-12-05T00:54:26.878Z,2.1
2017-12-05T00:54:31.044Z,2.11
2017-12-05T00:54:35.386Z,2.11
2017-12-05T00:54:39.738Z,2.11
2017-12-05T00:54:43.985Z,2.1
2017-12-05T00:54:48.332Z,2.11
2017-12-05T00:54:52.473Z,2.11
2017-12-05T00:54:56.826Z,2.12
2017-12-05T00:55:00.955Z,2.11
2017-12-05T00:55:05.331Z,2.11
2017-12-05T00:55:09.669Z,2.11
2017-12-05T00:55:13.920Z,2.11
2017-12-05T00:55:18.053Z,2.11
2017-12-05T00:55:22.396Z,2.11
2017-12-05T00:55:26.742Z,2.11
2017-12-05T00:55:30.864Z,2.11
2017-12-05T00:55:35.082Z,2.11
2017-12-05T00:55:39.322Z,2.11
2017-12-05T00:55:43.560Z,2.11
2017-12-05T00:55:47.912Z,2.11
2017-12-05T00:55:52.242Z,2.11
2017-12-05T00:55:56.583Z,2.11
2017-12-05T00:56:00.918Z,2.11
2017-12-05T00:56:05.299Z,2.1
2017-12-05T00:56:09.540Z,2.11
2017-12-05T00:56:13.565Z,2.11
2017-12-05T00:56:17.913Z,2.11
2017-12-05T00:56:22.150Z,2.11
2017-12-05T00:56:26.298Z,2.11
2017-12-05T00:56:30.647Z,2.11
2017-12-05T00:56:34.887Z,2.12
2017-12-05T00:56:39.224Z,2.12
2017-12-05T00:56:43.361Z,2.12